createdAt,value
2023-05-19T00:01:30.032Z,98146.00
2023-05-19T00:03:59.186Z,98148.00
2023-05-19T00:06:31.850Z,98143.00
2023-05-19T00:09:03.237Z,98141.00
2023-05-19T00:11:31.258Z,98133.00
2023-05-19T00:14:01.743Z,98126.00
2023-05-19T00:16:30.922Z,98141.00
2023-05-19T00:19:03.038Z,98136.00
2023-05-19T00:21:31.520Z,98130.00
2023-05-19T00:23:59.293Z,98135.00
2023-05-19T00:26:28.314Z,98133.00
2023-05-19T00:28:55.919Z,98138.00
2023-05-19T00:31:23.275Z,98137.00
2023-05-19T00:33:50.489Z,98141.00
2023-05-19T00:36:17.757Z,98133.00
2023-05-19T00:38:45.004Z,98136.00
2023-05-19T00:41:12.248Z,98124.00
2023-05-19T00:43:39.548Z,98125.00
2023-05-19T00:46:07.603Z,98131.00
2023-05-19T00:48:34.935Z,98119.00
2023-05-19T00:51:05.989Z,98127.00
2023-05-19T00:53:34.439Z,98117.00
2023-05-19T00:56:03.493Z,98118.00
2023-05-19T00:58:32.915Z,98116.00
2023-05-19T01:01:05.299Z,98111.00
2023-05-19T01:03:37.608Z,98118.00
2023-05-19T01:06:05.708Z,98105.00
2023-05-19T01:08:34.765Z,98101.00
2023-05-19T01:11:02.229Z,98103.00
2023-05-19T01:13:29.899Z,98103.00
2023-05-19T01:16:13.244Z,98106.00
2023-05-19T01:18:51.163Z,98110.00
2023-05-19T01:21:45.685Z,98100.00
2023-05-19T01:24:39.904Z,98102.00
2023-05-19T01:27:57.019Z,98107.00
2023-05-19T01:30:48.941Z,98097.00
2023-05-19T01:33:16.697Z,98096.00
2023-05-19T01:35:45.977Z,98095.00
2023-05-19T01:38:16.729Z,98086.00
2023-05-19T01:40:45.313Z,98095.00
2023-05-19T01:43:17.786Z,98091.00
2023-05-19T01:45:46.001Z,98094.00
2023-05-19T01:48:14.730Z,98092.00
2023-05-19T01:50:43.050Z,98089.00
2023-05-19T01:53:11.170Z,98093.00
2023-05-19T01:55:49.773Z,98097.00
2023-05-19T01:58:53.606Z,98096.00
2023-05-19T02:01:44.664Z,98099.00
2023-05-19T02:05:10.585Z,98100.00
2023-05-19T02:07:52.635Z,98099.00
2023-05-19T02:10:23.824Z,98107.00
2023-05-19T02:13:13.533Z,98097.00
2023-05-19T02:15:46.832Z,98099.00
2023-05-19T02:18:18.211Z,98100.00
2023-05-19T02:21:04.989Z,98096.00
2023-05-19T02:23:32.329Z,98107.00
2023-05-19T02:25:59.555Z,98107.00
2023-05-19T02:28:28.539Z,98102.00
2023-05-19T02:30:55.897Z,98116.00
2023-05-19T02:33:26.201Z,98114.00
2023-05-19T02:35:54.032Z,98113.00
2023-05-19T02:38:21.534Z,98110.00
2023-05-19T02:40:48.664Z,98109.00
2023-05-19T02:43:15.973Z,98104.00
2023-05-19T02:45:43.189Z,98107.00
2023-05-19T02:48:10.831Z,98103.00
2023-05-19T02:50:38.206Z,98101.00
2023-05-19T02:53:05.406Z,98096.00
2023-05-19T02:55:32.586Z,98097.00
2023-05-19T02:58:00.038Z,98089.00
2023-05-19T03:00:27.223Z,98092.00
2023-05-19T03:02:54.719Z,98083.00
2023-05-19T03:05:22.085Z,98082.00
2023-05-19T03:07:49.345Z,98080.00
2023-05-19T03:10:16.566Z,98088.00
2023-05-19T03:12:43.765Z,98078.00
2023-05-19T03:15:13.247Z,98086.00
2023-05-19T03:17:41.010Z,98080.00
2023-05-19T03:20:09.149Z,98076.00
2023-05-19T03:22:36.457Z,98079.00
2023-05-19T03:25:05.035Z,98084.00
2023-05-19T03:27:32.167Z,98075.00
2023-05-19T03:29:59.349Z,98083.00
2023-05-19T03:32:26.751Z,98087.00
2023-05-19T03:34:53.961Z,98088.00
2023-05-19T03:37:21.199Z,98084.00
2023-05-19T03:39:48.470Z,98079.00
2023-05-19T03:42:16.251Z,98083.00
2023-05-19T03:44:44.750Z,98083.00
2023-05-19T03:47:12.200Z,98094.00
2023-05-19T03:49:39.436Z,98091.00
2023-05-19T03:52:06.752Z,98089.00
2023-05-19T03:54:34.076Z,98091.00
2023-05-19T03:57:02.273Z,98093.00
2023-05-19T03:59:29.432Z,98089.00
2023-05-19T04:01:57.957Z,98096.00
2023-05-19T04:04:25.485Z,98090.00
2023-05-19T04:06:52.748Z,98088.00
2023-05-19T04:09:19.968Z,98085.00
2023-05-19T04:11:47.172Z,98078.00
2023-05-19T04:14:14.360Z,98077.00
2023-05-19T04:16:41.900Z,98080.00
2023-05-19T04:19:09.132Z,98079.00
2023-05-19T04:21:36.574Z,98082.00
2023-05-19T04:24:06.718Z,98079.00
2023-05-19T04:26:34.681Z,98084.00
2023-05-19T04:29:05.062Z,98085.00
2023-05-19T04:31:34.572Z,98088.00
2023-05-19T04:34:02.009Z,98092.00
2023-05-19T04:36:29.218Z,98093.00
2023-05-19T04:39:02.387Z,98096.00
2023-05-19T04:41:29.790Z,98099.00
2023-05-19T04:43:57.675Z,98097.00
2023-05-19T04:46:26.183Z,98099.00
2023-05-19T04:48:55.488Z,98088.00
2023-05-19T04:51:23.277Z,98086.00
2023-05-19T04:53:51.760Z,98085.00
2023-05-19T04:56:18.958Z,98089.00
2023-05-19T04:58:47.248Z,98083.00
2023-05-19T05:01:15.935Z,98082.00
2023-05-19T05:03:43.683Z,98087.00
2023-05-19T05:06:12.404Z,98083.00
2023-05-19T05:08:41.345Z,98082.00
2023-05-19T05:11:09.188Z,98081.00
2023-05-19T05:13:36.906Z,98082.00
2023-05-19T05:16:06.743Z,98089.00
2023-05-19T05:18:35.328Z,98075.00
2023-05-19T05:21:06.476Z,98077.00
2023-05-19T05:23:34.081Z,98067.00
2023-05-19T05:26:10.780Z,98058.00
2023-05-19T05:28:38.011Z,98066.00
2023-05-19T05:31:07.533Z,98058.00
2023-05-19T05:33:34.773Z,98055.00
2023-05-19T05:36:04.354Z,98054.00
2023-05-19T05:38:40.439Z,98066.00
2023-05-19T05:41:07.706Z,98065.00
2023-05-19T05:43:35.008Z,98065.00
2023-05-19T05:46:03.892Z,98056.00
2023-05-19T05:48:32.932Z,98061.00
2023-05-19T05:51:00.601Z,98064.00
2023-05-19T05:53:32.508Z,98060.00
2023-05-19T05:56:01.293Z,98063.00
2023-05-19T05:58:29.032Z,98063.00
2023-05-19T06:00:57.883Z,98062.00
2023-05-19T06:03:25.341Z,98079.00
2023-05-19T06:05:52.820Z,98069.00
2023-05-19T06:08:23.028Z,98066.00
2023-05-19T06:10:50.519Z,98066.00
2023-05-19T06:13:22.349Z,98062.00
2023-05-19T06:15:50.254Z,98062.00
2023-05-19T06:18:17.739Z,98066.00
2023-05-19T06:20:45.129Z,98073.00
2023-05-19T06:23:12.349Z,98065.00
2023-05-19T06:25:39.670Z,98061.00
2023-05-19T06:28:06.824Z,98062.00
2023-05-19T06:30:36.929Z,98076.00
2023-05-19T06:33:05.790Z,98072.00
2023-05-19T06:35:33.091Z,98079.00
2023-05-19T06:38:02.051Z,98074.00
2023-05-19T06:40:29.708Z,98073.00
2023-05-19T06:42:57.769Z,98079.00
2023-05-19T06:45:24.896Z,98066.00
2023-05-19T06:47:52.194Z,98078.00
2023-05-19T06:50:19.564Z,98075.00
2023-05-19T06:52:47.287Z,98080.00
2023-05-19T06:55:14.696Z,98078.00
2023-05-19T06:57:41.963Z,98080.00
2023-05-19T07:00:15.839Z,98079.00
2023-05-19T07:02:45.238Z,98089.00
2023-05-19T07:05:12.816Z,98077.00
2023-05-19T07:07:40.047Z,98084.00
2023-05-19T07:10:07.985Z,98082.00
2023-05-19T07:12:35.175Z,98075.00
2023-05-19T07:15:02.575Z,98074.00
2023-05-19T07:17:29.792Z,98079.00
2023-05-19T07:19:57.039Z,98071.00
2023-05-19T07:22:24.388Z,98085.00
2023-05-19T07:24:51.599Z,98080.00
2023-05-19T07:27:19.068Z,98073.00
2023-05-19T07:29:46.409Z,98076.00
2023-05-19T07:32:13.688Z,98071.00
2023-05-19T07:34:41.641Z,98068.00
2023-05-19T07:37:08.988Z,98071.00
2023-05-19T07:39:45.395Z,98074.00
2023-05-19T07:42:15.969Z,98069.00
2023-05-19T07:44:46.499Z,98070.00
2023-05-19T07:47:20.052Z,98070.00
2023-05-19T07:49:50.389Z,98074.00
2023-05-19T07:52:20.465Z,98073.00
2023-05-19T07:54:50.223Z,98070.00
2023-05-19T07:57:19.085Z,98069.00
2023-05-19T07:59:46.485Z,98069.00
2023-05-19T08:02:15.679Z,98072.00
2023-05-19T08:04:43.043Z,98072.00
2023-05-19T08:07:10.396Z,98061.00
2023-05-19T08:09:37.563Z,98059.00
2023-05-19T08:12:05.171Z,98068.00
2023-05-19T08:14:33.545Z,98058.00
2023-05-19T08:17:01.122Z,98062.00
2023-05-19T08:19:28.429Z,98051.00
2023-05-19T08:21:57.753Z,98065.00
2023-05-19T08:24:26.954Z,98066.00
2023-05-19T08:26:54.272Z,98060.00
2023-05-19T08:29:21.840Z,98062.00
2023-05-19T08:31:49.143Z,98049.00
2023-05-19T08:34:16.738Z,98060.00
2023-05-19T08:36:45.400Z,98057.00
2023-05-19T08:39:14.102Z,98054.00
2023-05-19T08:41:41.329Z,98047.00
2023-05-19T08:44:08.563Z,98051.00
2023-05-19T08:46:36.253Z,98048.00
2023-05-19T08:49:13.420Z,98041.00
2023-05-19T08:52:27.315Z,98050.00
2023-05-19T08:55:08.068Z,98050.00
2023-05-19T08:57:37.014Z,98035.00
2023-05-19T09:00:09.698Z,98047.00
2023-05-19T09:02:50.309Z,98041.00
2023-05-19T09:05:26.733Z,98048.00
2023-05-19T09:07:54.002Z,98050.00
2023-05-19T09:10:21.353Z,98051.00
2023-05-19T09:12:49.864Z,98049.00
2023-05-19T09:15:20.347Z,98043.00
2023-05-19T09:17:50.689Z,98039.00
2023-05-19T09:20:18.072Z,98038.00
2023-05-19T09:22:47.494Z,98038.00
2023-05-19T09:25:24.506Z,98031.00
2023-05-19T09:27:54.528Z,98032.00
2023-05-19T09:30:21.831Z,98032.00
2023-05-19T09:32:49.093Z,98022.00
2023-05-19T09:35:20.814Z,98038.00
2023-05-19T09:37:48.406Z,98024.00
2023-05-19T09:40:16.742Z,98024.00
2023-05-19T09:42:48.930Z,98025.00
2023-05-19T09:45:16.704Z,98031.00
2023-05-19T09:47:44.098Z,98022.00
2023-05-19T09:50:12.858Z,98023.00
2023-05-19T09:52:43.808Z,98008.00
2023-05-19T09:55:13.615Z,98030.00
2023-05-19T09:57:42.145Z,98012.00
2023-05-19T10:00:13.806Z,98018.00
2023-05-19T10:02:47.728Z,97998.00
2023-05-19T10:05:20.071Z,98002.00
2023-05-19T10:07:51.667Z,97994.00
2023-05-19T10:10:23.309Z,97992.00
2023-05-19T10:12:50.904Z,97995.00
2023-05-19T10:15:22.168Z,97996.00
2023-05-19T10:17:51.087Z,97995.00
2023-05-19T10:20:18.927Z,97988.00
2023-05-19T10:22:47.268Z,97997.00
2023-05-19T10:25:16.865Z,97993.00
2023-05-19T10:28:08.547Z,98001.00
2023-05-19T10:30:41.372Z,98004.00
2023-05-19T10:33:13.349Z,98001.00
2023-05-19T10:36:09.289Z,97994.00
2023-05-19T10:38:46.326Z,97992.00
2023-05-19T10:41:46.976Z,97984.00
2023-05-19T10:44:42.992Z,97982.00
2023-05-19T10:47:12.438Z,97976.00
2023-05-19T10:49:40.338Z,97990.00
2023-05-19T10:52:30.191Z,97988.00
2023-05-19T10:54:58.445Z,97980.00
2023-05-19T10:57:28.315Z,97982.00
2023-05-19T10:59:59.727Z,97973.00
2023-05-19T11:02:41.382Z,97959.00
2023-05-19T11:05:15.117Z,97966.00
2023-05-19T11:08:04.566Z,97961.00
2023-05-19T11:10:32.524Z,97962.00
2023-05-19T11:13:00.368Z,97962.00
2023-05-19T11:15:29.050Z,97964.00
2023-05-19T11:17:57.286Z,97960.00
2023-05-19T11:20:30.289Z,97960.00
2023-05-19T11:23:08.821Z,97954.00
2023-05-19T11:25:48.461Z,97961.00
2023-05-19T11:28:28.092Z,97962.00
2023-05-19T11:30:58.030Z,97949.00
2023-05-19T11:33:42.588Z,97946.00
2023-05-19T11:36:11.794Z,97950.00
2023-05-19T11:38:41.774Z,97948.00
2023-05-19T11:41:09.238Z,97940.00
2023-05-19T11:43:40.648Z,97947.00
2023-05-19T11:46:09.900Z,97948.00
2023-05-19T11:48:37.225Z,97943.00
2023-05-19T11:51:06.675Z,97939.00
2023-05-19T11:53:36.362Z,97941.00
2023-05-19T11:56:07.185Z,97941.00
2023-05-19T11:58:34.386Z,97929.00
2023-05-19T12:01:05.010Z,97935.00
2023-05-19T12:03:33.178Z,97925.00
2023-05-19T12:06:00.918Z,97923.00
2023-05-19T12:08:29.687Z,97927.00
2023-05-19T12:10:57.390Z,97920.00
2023-05-19T12:13:25.725Z,97929.00
2023-05-19T12:15:54.922Z,97924.00
2023-05-19T12:18:22.402Z,97922.00
2023-05-19T12:20:50.777Z,97915.00
2023-05-19T12:23:18.092Z,97921.00
2023-05-19T12:25:45.407Z,97906.00
2023-05-19T12:28:12.908Z,97904.00
2023-05-19T12:30:40.250Z,97908.00
2023-05-19T12:33:11.336Z,97896.00
2023-05-19T12:35:38.711Z,97901.00
2023-05-19T12:38:07.188Z,97901.00
2023-05-19T12:40:36.621Z,97897.00
2023-05-19T12:43:04.632Z,97899.00
2023-05-19T12:45:37.342Z,97895.00
2023-05-19T12:48:16.279Z,97895.00
2023-05-19T12:50:47.765Z,97896.00
2023-05-19T12:53:16.530Z,97890.00
2023-05-19T12:55:45.638Z,97892.00
2023-05-19T12:58:13.407Z,97884.00
2023-05-19T13:00:43.823Z,97889.00
2023-05-19T13:03:19.717Z,97885.00
2023-05-19T13:05:50.670Z,97884.00
2023-05-19T13:08:24.177Z,97877.00
2023-05-19T13:10:51.979Z,97875.00
2023-05-19T13:13:19.751Z,97869.00
2023-05-19T13:15:50.764Z,97871.00
2023-05-19T13:18:18.707Z,97869.00
2023-05-19T13:20:49.218Z,97873.00
2023-05-19T13:23:16.655Z,97869.00
2023-05-19T13:25:44.333Z,97873.00
2023-05-19T13:28:12.958Z,97862.00
2023-05-19T13:30:42.048Z,97868.00
2023-05-19T13:33:09.477Z,97861.00
2023-05-19T13:35:38.566Z,97858.00
2023-05-19T13:38:10.512Z,97853.00
2023-05-19T13:40:38.384Z,97851.00
2023-05-19T13:43:06.200Z,97850.00
2023-05-19T13:45:34.555Z,97853.00
2023-05-19T13:48:02.090Z,97846.00
2023-05-19T13:50:29.469Z,97845.00
2023-05-19T13:52:56.841Z,97844.00
2023-05-19T13:55:24.287Z,97840.00
2023-05-19T13:57:51.606Z,97842.00
2023-05-19T14:00:19.689Z,97831.00
2023-05-19T14:02:46.955Z,97833.00
2023-05-19T14:05:14.248Z,97835.00
2023-05-19T14:07:41.567Z,97832.00
2023-05-19T14:10:09.467Z,97824.00
2023-05-19T14:12:55.137Z,97823.00
2023-05-19T14:15:24.250Z,97817.00
2023-05-19T14:17:53.765Z,97813.00
2023-05-19T14:20:21.083Z,97809.00
2023-05-19T14:22:48.335Z,97810.00
2023-05-19T14:25:15.654Z,97807.00
2023-05-19T14:27:42.783Z,97812.00
2023-05-19T14:30:10.760Z,97813.00
2023-05-19T14:32:38.081Z,97812.00
2023-05-19T14:35:06.491Z,97820.00
2023-05-19T14:37:33.844Z,97807.00
2023-05-19T14:40:01.210Z,97816.00
2023-05-19T14:42:28.359Z,97811.00
2023-05-19T14:44:56.123Z,97803.00
2023-05-19T14:47:23.535Z,97805.00
2023-05-19T14:49:51.607Z,97804.00
2023-05-19T14:52:18.885Z,97809.00
2023-05-19T14:54:46.155Z,97807.00
2023-05-19T14:57:13.445Z,97812.00
2023-05-19T14:59:40.845Z,97807.00
2023-05-19T15:02:08.105Z,97806.00
2023-05-19T15:04:35.283Z,97804.00
2023-05-19T15:09:32.523Z,97803.00
2023-05-19T15:12:02.788Z,97801.00
2023-05-19T15:14:31.020Z,97800.00
2023-05-19T15:16:59.125Z,97801.00
2023-05-19T15:19:26.897Z,97800.00
2023-05-19T15:21:54.372Z,97794.00
2023-05-19T15:24:21.613Z,97802.00
2023-05-19T15:26:49.003Z,97789.00
2023-05-19T15:29:16.485Z,97799.00
2023-05-19T15:31:43.894Z,97794.00
2023-05-19T15:34:11.126Z,97784.00
2023-05-19T15:36:38.450Z,97784.00
2023-05-19T15:39:06.662Z,97788.00
2023-05-19T15:41:33.959Z,97790.00
2023-05-19T15:44:02.507Z,97787.00
2023-05-19T15:46:30.621Z,97790.00
2023-05-19T15:48:57.934Z,97788.00
2023-05-19T15:51:25.730Z,97788.00
2023-05-19T15:53:53.391Z,97790.00
2023-05-19T15:56:21.718Z,97784.00
2023-05-19T15:58:49.162Z,97786.00
2023-05-19T16:01:17.036Z,97784.00
2023-05-19T16:03:45.979Z,97775.00
2023-05-19T16:06:13.443Z,97777.00
2023-05-19T16:08:40.632Z,97773.00
2023-05-19T16:11:07.979Z,97767.00
2023-05-19T16:13:35.318Z,97769.00
2023-05-19T16:16:02.806Z,97762.00
2023-05-19T16:18:30.159Z,97762.00
2023-05-19T16:20:57.436Z,97766.00
2023-05-19T16:23:24.952Z,97755.00
2023-05-19T16:25:52.430Z,97770.00
2023-05-19T16:28:20.093Z,97770.00
2023-05-19T16:30:48.150Z,97765.00
2023-05-19T16:33:15.409Z,97766.00
2023-05-19T16:35:42.742Z,97762.00
2023-05-19T16:38:09.916Z,97756.00
2023-05-19T16:40:37.230Z,97751.00
2023-05-19T16:43:04.542Z,97746.00
2023-05-19T16:45:31.710Z,97746.00
2023-05-19T16:47:58.907Z,97745.00
2023-05-19T16:50:26.129Z,97734.00
2023-05-19T16:52:53.229Z,97744.00
2023-05-19T16:55:20.750Z,97748.00
2023-05-19T16:57:47.967Z,97743.00
2023-05-19T17:00:16.054Z,97742.00
2023-05-19T17:02:43.324Z,97739.00
2023-05-19T17:05:10.610Z,97738.00
2023-05-19T17:07:37.710Z,97738.00
2023-05-19T17:10:05.771Z,97746.00
2023-05-19T17:12:32.957Z,97749.00
2023-05-19T17:15:00.188Z,97751.00
2023-05-19T17:17:27.526Z,97750.00
2023-05-19T17:19:54.725Z,97744.00
2023-05-19T17:22:21.928Z,97747.00
2023-05-19T17:24:49.088Z,97750.00
2023-05-19T17:27:16.327Z,97752.00
2023-05-19T17:29:43.547Z,97765.00
2023-05-19T17:32:10.746Z,97742.00
2023-05-19T17:34:39.281Z,97744.00
2023-05-19T17:37:06.409Z,97745.00
2023-05-19T17:39:34.008Z,97744.00
2023-05-19T17:42:01.285Z,97741.00
2023-05-19T17:44:28.426Z,97741.00
2023-05-19T17:46:55.831Z,97735.00
2023-05-19T17:49:24.486Z,97731.00
2023-05-19T17:51:52.311Z,97742.00
2023-05-19T17:54:20.630Z,97739.00
2023-05-19T17:56:49.169Z,97735.00
2023-05-19T17:59:16.747Z,97745.00
2023-05-19T18:01:44.486Z,97738.00
2023-05-19T18:04:13.932Z,97740.00
2023-05-19T18:06:48.306Z,97736.00
2023-05-19T18:09:19.661Z,97740.00
2023-05-19T18:11:46.935Z,97741.00
2023-05-19T18:14:14.152Z,97728.00
2023-05-19T18:16:41.373Z,97735.00
2023-05-19T18:19:08.929Z,97736.00
2023-05-19T18:21:36.127Z,97742.00
2023-05-19T18:24:04.575Z,97739.00
2023-05-19T18:26:33.244Z,97739.00
2023-05-19T18:29:02.923Z,97749.00
2023-05-19T18:31:30.509Z,97740.00
2023-05-19T18:33:57.683Z,97745.00
2023-05-19T18:36:24.823Z,97750.00
2023-05-19T18:38:52.332Z,97744.00
2023-05-19T18:41:19.507Z,97736.00
2023-05-19T18:43:46.865Z,97744.00
2023-05-19T18:46:14.142Z,97737.00
2023-05-19T18:48:41.504Z,97742.00
2023-05-19T18:51:09.492Z,97739.00
2023-05-19T18:53:37.245Z,97734.00
2023-05-19T18:56:04.857Z,97741.00
2023-05-19T18:58:32.706Z,97750.00
2023-05-19T19:00:59.856Z,97760.00
2023-05-19T19:03:28.777Z,97752.00
2023-05-19T19:05:57.786Z,97755.00
2023-05-19T19:08:25.234Z,97758.00
2023-05-19T19:10:53.669Z,97765.00
2023-05-19T19:13:21.285Z,97773.00
2023-05-19T19:15:48.471Z,97775.00
2023-05-19T19:18:16.064Z,97782.00
2023-05-19T19:20:43.347Z,97785.00
2023-05-19T19:23:10.667Z,97784.00
2023-05-19T19:25:38.008Z,97781.00
2023-05-19T19:28:05.184Z,97784.00
2023-05-19T19:30:32.625Z,97787.00
2023-05-19T19:33:00.366Z,97785.00
2023-05-19T19:35:27.787Z,97791.00
2023-05-19T19:37:55.107Z,97787.00
2023-05-19T19:40:22.574Z,97786.00
2023-05-19T19:42:51.864Z,97778.00
2023-05-19T19:45:19.749Z,97780.00
